استانبول, ترکیه

02:17 PM EEST on اكتبر 24, 2014 (GMT +0300)
Ataturk | Change Station
CLOSE
Current Station
Airport
Location: Istanbul,
Elevation: 121 ft
Nearby Weather Stations

Elev 121 ft 40.98 °N, 28.81 °E | Updated 57 minutes ago

Scattered Clouds
ابرهای پراکنده
70 °F
Feels Like 70 °F
N
4
باد متغير باد from جنوب غربی

امروز
High -- | Low -- °F
--% Chance of Precip.
دیروز
High -- | Low -- °F
Precip. -- در
7:25 AM 6:11 PM
ماه جدید, 0% visible
فشار 29.92 در
ديد 6.2 مايل، ميل (در برابر كيلومتر
ابری ابرهای پراکنده 3500 ft
قطره شبنم 54 °F
رطوبت 56%
بارش باران 0.00 در
برف عمیق Not available.
مادون قرمز 3 out of 12
Pollen Not available.
تمیزی هوا Not available.
Flu Activity Not available.
METAR LTBA 241020Z 22003KT 120V270 9999 SCT035 21/12 Q1013 NOSIG

More Conditions Fewer Conditions

فشار 29.92 در
ديد 6.2 مايل، ميل (در برابر كيلومتر
ابری ابرهای پراکنده 3500 ft
قطره شبنم 54 °F
رطوبت 56%
بارش باران 0.00 در
برف عمیق Not available.
مادون قرمز 3 out of 12
Pollen Not available.
تمیزی هوا Not available.
Flu Activity Not available.
METAR LTBA 241020Z 22003KT 120V270 9999 SCT035 21/12 Q1013 NOSIG

More Conditions Fewer Conditions

10-Day Weather Forecast

Almanac

ستاره شناسی

Oct. 24, 2014 Rise Set
وقت حقیقی 7:25 AM EEST 6:11 PM EEST
تاریک و روشن اجتماعی 6:57 AM EEST 6:39 PM EEST
تاریک روشن دریایی 6:25 AM EEST 7:11 PM EEST
شفق و فلق نجومی 5:53 AM EEST 7:43 PM EEST
ماه 7:45 AM EEST 6:38 PM EEST
میزان روشنایی روز 11h 41m
طول روز
10h 45m
Tomorrow will be 2m 31s shorter.
ماه جدید, 0% of the Moon is Illuminated
امروز
ماه جدید
Oct 30
ربع اول
Nov 6
ماه کامل
Nov 14
ربع آخر
Nov 22
New

Yesterday's Extremes

Country Highs Country Lows

Community

WunderPhotos

Upload Photos

1,764,518 photos uploaded!

WunderBlogs® & News

Nearby

تمیزی هوا

Not available.

عمق برف

Not available.

Earthquake Activity

شهر Distance Mag. Time & Date
No recent earthquake activity has been reported nearby.
Minimum magnitude displayed is 2.5.

Coastal Water Temperatures

منطقه درجه حرارت
No Stations Reporting

Nearby Weather Stations